createdAt,value
2022-07-28T00:00:02.982Z,99.90
2022-07-28T00:02:29.830Z,99.90
2022-07-28T00:04:56.880Z,99.90
2022-07-28T00:07:23.737Z,99.90
2022-07-28T00:09:50.747Z,99.90
2022-07-28T00:12:17.413Z,99.90
2022-07-28T00:14:44.537Z,99.90
2022-07-28T00:17:11.531Z,99.90
2022-07-28T00:19:38.278Z,99.90
2022-07-28T00:22:06.314Z,99.90
2022-07-28T00:24:33.312Z,99.90
2022-07-28T00:27:00.237Z,99.90
2022-07-28T00:29:49.778Z,99.90
2022-07-28T00:32:14.056Z,99.90
2022-07-28T00:34:41.178Z,99.90
2022-07-28T00:37:09.283Z,99.90
2022-07-28T00:39:41.187Z,99.90
2022-07-28T00:42:08.071Z,99.90
2022-07-28T00:44:34.826Z,99.90
2022-07-28T00:47:01.622Z,99.90
2022-07-28T00:49:28.330Z,99.90
2022-07-28T00:51:55.051Z,99.90
2022-07-28T00:54:21.750Z,99.90
2022-07-28T00:56:48.452Z,99.90
2022-07-28T00:59:15.084Z,99.90
2022-07-28T01:01:42.056Z,99.90
2022-07-28T01:04:08.984Z,99.90
2022-07-28T01:07:17.413Z,99.90
2022-07-28T01:10:19.898Z,99.90
2022-07-28T01:12:55.512Z,99.90
2022-07-28T01:15:40.583Z,99.90
2022-07-28T01:18:17.567Z,99.90
2022-07-28T01:20:59.058Z,99.90
2022-07-28T01:23:34.469Z,99.90
2022-07-28T01:26:33.822Z,99.90
2022-07-28T01:29:14.366Z,99.90
2022-07-28T01:31:48.440Z,99.90
2022-07-28T01:34:23.373Z,99.90
2022-07-28T01:37:07.996Z,99.90
2022-07-28T01:39:37.591Z,99.90
2022-07-28T01:44:55.761Z,99.90
2022-07-28T01:47:27.761Z,99.90
2022-07-28T01:50:02.129Z,99.90
2022-07-28T01:52:30.382Z,99.90
2022-07-28T01:55:01.517Z,99.90
2022-07-28T01:57:31.567Z,99.90
2022-07-28T02:00:12.467Z,99.90
2022-07-28T02:02:49.813Z,99.90
2022-07-28T02:05:21.740Z,99.90
2022-07-28T02:07:50.434Z,99.90
2022-07-28T02:10:18.444Z,99.90
2022-07-28T02:12:48.061Z,99.90
2022-07-28T02:15:15.758Z,99.90
2022-07-28T02:17:45.810Z,99.90
2022-07-28T02:20:14.770Z,99.90
2022-07-28T02:22:42.620Z,99.90
2022-07-28T02:25:10.149Z,99.90
2022-07-28T02:27:40.511Z,99.90
2022-07-28T02:30:15.479Z,99.90
2022-07-28T02:32:52.333Z,99.90
2022-07-28T02:35:37.885Z,99.90
2022-07-28T02:38:12.662Z,99.90
2022-07-28T02:40:42.840Z,99.90
2022-07-28T02:43:14.236Z,99.90
2022-07-28T02:45:44.205Z,99.90
2022-07-28T02:48:18.961Z,99.90
2022-07-28T02:50:46.894Z,99.90
2022-07-28T02:53:16.388Z,99.90
2022-07-28T02:55:46.650Z,99.90
2022-07-28T02:58:15.617Z,99.90
2022-07-28T03:00:42.864Z,99.90
2022-07-28T03:03:11.360Z,99.90
2022-07-28T03:05:41.208Z,99.90
2022-07-28T03:08:08.578Z,99.90
2022-07-28T03:10:36.540Z,99.90
2022-07-28T03:13:06.682Z,99.90
2022-07-28T03:15:37.316Z,99.90
2022-07-28T03:18:05.313Z,99.90
2022-07-28T03:20:32.806Z,99.90
2022-07-28T03:23:00.241Z,99.90
2022-07-28T03:25:43.695Z,99.90
2022-07-28T03:28:15.078Z,99.90
2022-07-28T03:30:45.217Z,99.90
2022-07-28T03:33:12.407Z,99.90
2022-07-28T03:35:44.646Z,99.90
2022-07-28T03:38:20.948Z,99.90
2022-07-28T03:40:49.057Z,99.90
2022-07-28T03:43:21.061Z,99.90
2022-07-28T03:45:47.954Z,99.90
2022-07-28T03:48:15.511Z,99.90
2022-07-28T03:50:42.752Z,99.90
2022-07-28T03:53:18.146Z,99.90
2022-07-28T03:55:50.533Z,99.90
2022-07-28T03:58:19.154Z,99.90
2022-07-28T04:00:46.240Z,99.90
2022-07-28T04:03:35.330Z,99.90
2022-07-28T04:06:02.000Z,99.90
2022-07-28T04:08:28.723Z,99.90
2022-07-28T04:10:55.590Z,99.90
2022-07-28T04:13:22.296Z,99.90
2022-07-28T04:15:49.090Z,99.90
2022-07-28T04:18:15.886Z,99.90
2022-07-28T04:20:42.575Z,99.90
2022-07-28T04:23:09.474Z,99.90
2022-07-28T04:25:36.344Z,99.90
2022-07-28T04:28:07.278Z,99.90
2022-07-28T04:30:34.173Z,99.90
2022-07-28T04:33:00.925Z,99.90
2022-07-28T04:35:28.383Z,99.90
2022-07-28T04:37:58.379Z,99.90
2022-07-28T04:40:26.775Z,99.90
2022-07-28T04:42:54.403Z,99.90
2022-07-28T04:45:21.491Z,99.90
2022-07-28T04:47:48.271Z,99.90
2022-07-28T04:50:22.533Z,99.90
2022-07-28T04:52:50.065Z,99.90
2022-07-28T04:55:18.259Z,99.90
2022-07-28T04:57:45.665Z,99.90
2022-07-28T05:00:14.314Z,99.90
2022-07-28T05:02:42.999Z,99.90
2022-07-28T05:05:10.417Z,99.90
2022-07-28T05:07:38.315Z,99.90
2022-07-28T05:10:07.097Z,99.90
2022-07-28T05:12:33.840Z,99.90
2022-07-28T05:15:00.931Z,99.90
2022-07-28T05:17:27.900Z,99.90
2022-07-28T05:19:54.645Z,99.90
2022-07-28T05:22:49.684Z,99.90
2022-07-28T05:25:53.528Z,99.90
2022-07-28T05:28:18.931Z,99.90
2022-07-28T05:30:53.029Z,99.90
2022-07-28T05:33:19.765Z,99.90
2022-07-28T05:35:52.546Z,99.90
2022-07-28T05:38:19.533Z,99.90
2022-07-28T05:40:48.154Z,99.90
2022-07-28T05:43:14.997Z,99.90
2022-07-28T05:45:41.840Z,99.90
2022-07-28T05:48:08.678Z,99.90
2022-07-28T05:50:35.463Z,99.90
2022-07-28T05:53:02.386Z,99.90
2022-07-28T05:55:29.164Z,99.90
2022-07-28T05:57:55.852Z,99.90
2022-07-28T06:00:23.480Z,99.90
2022-07-28T06:02:51.085Z,99.90
2022-07-28T06:05:22.522Z,99.90
2022-07-28T06:07:51.971Z,99.90
2022-07-28T06:10:22.847Z,99.90
2022-07-28T06:13:08.390Z,99.90
2022-07-28T06:19:56.326Z,99.90
2022-07-28T06:22:37.752Z,99.90
2022-07-28T06:28:17.031Z,99.90
2022-07-28T06:31:01.896Z,99.90
2022-07-28T06:36:21.322Z,99.90
2022-07-28T06:38:50.563Z,99.90
2022-07-28T06:44:18.827Z,99.90
2022-07-28T06:46:50.685Z,99.90
2022-07-28T06:49:40.809Z,99.90
2022-07-28T06:52:11.901Z,99.90
2022-07-28T06:54:48.702Z,99.90
2022-07-28T06:57:33.589Z,99.90
2022-07-28T07:00:16.828Z,99.90
2022-07-28T07:02:50.546Z,99.90
2022-07-28T07:05:32.949Z,99.90
2022-07-28T07:08:04.185Z,99.90
2022-07-28T07:11:20.423Z,99.90
2022-07-28T07:13:42.091Z,99.90
2022-07-28T07:16:10.246Z,99.90
2022-07-28T07:18:55.304Z,99.90
2022-07-28T07:21:27.170Z,99.90
2022-07-28T07:24:07.469Z,99.90
2022-07-28T07:26:38.355Z,99.90
2022-07-28T07:29:11.320Z,99.90
2022-07-28T07:31:53.025Z,99.90
2022-07-28T07:34:26.764Z,99.90
2022-07-28T07:37:00.961Z,99.90
2022-07-28T07:39:31.387Z,99.90
2022-07-28T07:42:40.342Z,99.90
2022-07-28T07:45:18.240Z,99.90
2022-07-28T07:47:51.763Z,99.90
2022-07-28T07:54:07.824Z,99.90
2022-07-28T07:56:40.424Z,99.90
2022-07-28T07:59:36.765Z,99.10
2022-07-28T08:04:51.078Z,98.80
2022-07-28T08:07:18.065Z,96.90
2022-07-28T08:09:48.980Z,96.20
2022-07-28T08:12:15.657Z,95.80
2022-07-28T08:14:42.438Z,94.20
2022-07-28T08:17:14.735Z,93.80
2022-07-28T08:19:41.633Z,93.20
2022-07-28T08:22:08.549Z,93.40
2022-07-28T08:24:35.511Z,93.20
2022-07-28T08:27:03.477Z,92.60
2022-07-28T08:29:30.477Z,91.90
2022-07-28T08:31:57.778Z,92.40
2022-07-28T08:34:28.515Z,91.70
2022-07-28T08:37:01.972Z,91.60
2022-07-28T08:39:29.272Z,91.20
2022-07-28T08:41:56.106Z,90.30
2022-07-28T08:44:30.771Z,90.30
2022-07-28T08:46:58.904Z,90.60
2022-07-28T08:49:26.767Z,91.50
2022-07-28T08:51:56.179Z,89.70
2022-07-28T08:54:28.027Z,89.20
2022-07-28T08:56:55.792Z,90.10
2022-07-28T08:59:23.788Z,88.30
2022-07-28T09:01:57.270Z,88.70
2022-07-28T09:04:25.998Z,86.40
2022-07-28T09:06:53.266Z,86.20
2022-07-28T09:09:21.642Z,87.10
2022-07-28T09:11:48.448Z,85.00
2022-07-28T09:14:15.833Z,86.40
2022-07-28T09:16:42.878Z,84.80
2022-07-28T09:19:09.706Z,83.10
2022-07-28T09:21:36.830Z,82.50
2022-07-28T09:24:03.876Z,80.90
2022-07-28T09:26:30.572Z,81.90
2022-07-28T09:28:58.994Z,81.50
2022-07-28T09:31:27.979Z,81.20
2022-07-28T09:33:57.609Z,80.30
2022-07-28T09:36:24.860Z,79.90
2022-07-28T09:38:51.873Z,81.80
2022-07-28T09:41:21.672Z,82.90
2022-07-28T09:43:54.437Z,83.30
2022-07-28T09:46:25.111Z,82.60
2022-07-28T09:48:59.916Z,83.70
2022-07-28T09:51:31.982Z,80.90
2022-07-28T09:54:08.650Z,81.20
2022-07-28T09:56:35.765Z,81.10
2022-07-28T09:59:03.743Z,80.60
2022-07-28T10:01:37.073Z,78.40
2022-07-28T10:04:04.416Z,78.10
2022-07-28T10:06:33.239Z,77.30
2022-07-28T10:09:07.751Z,76.30
2022-07-28T10:11:40.935Z,76.50
2022-07-28T10:14:08.545Z,76.40
2022-07-28T10:16:42.550Z,76.40
2022-07-28T10:19:09.549Z,76.20
2022-07-28T10:21:42.407Z,75.80
2022-07-28T10:24:14.287Z,75.90
2022-07-28T10:26:44.932Z,75.40
2022-07-28T10:29:20.888Z,74.20
2022-07-28T10:32:05.285Z,74.80
2022-07-28T10:34:43.640Z,76.70
2022-07-28T10:37:24.203Z,75.40
2022-07-28T10:40:18.404Z,76.80
2022-07-28T10:42:45.482Z,77.40
2022-07-28T10:45:13.628Z,75.60
2022-07-28T10:47:40.447Z,76.10
2022-07-28T10:50:08.584Z,75.70
2022-07-28T10:52:47.148Z,77.20
2022-07-28T10:55:40.902Z,74.20
2022-07-28T10:58:25.231Z,75.30
2022-07-28T11:00:58.213Z,73.90
2022-07-28T11:03:44.496Z,73.80
2022-07-28T11:06:31.165Z,73.20
2022-07-28T11:09:15.496Z,72.80
2022-07-28T11:11:51.953Z,73.30
2022-07-28T11:14:24.819Z,72.80
2022-07-28T11:17:00.816Z,73.60
2022-07-28T11:20:00.885Z,73.80
2022-07-28T11:22:37.797Z,72.80
2022-07-28T11:25:20.833Z,72.60
2022-07-28T11:27:54.230Z,72.70
2022-07-28T11:30:32.981Z,73.60
2022-07-28T11:33:00.733Z,73.10
2022-07-28T11:35:32.214Z,74.00
2022-07-28T11:38:01.953Z,74.60
2022-07-28T11:40:40.394Z,73.80
2022-07-28T11:43:37.775Z,73.50
2022-07-28T11:46:10.450Z,74.20
2022-07-28T11:48:44.856Z,76.10
2022-07-28T11:51:13.426Z,74.60
2022-07-28T11:53:43.208Z,74.40
2022-07-28T11:56:24.731Z,74.50
2022-07-28T11:59:03.141Z,74.70
2022-07-28T12:01:31.995Z,74.90
2022-07-28T12:03:59.994Z,75.00
2022-07-28T12:06:38.382Z,75.60
2022-07-28T12:09:07.496Z,75.20
2022-07-28T12:11:38.801Z,75.60
2022-07-28T12:14:08.442Z,75.60
2022-07-28T12:16:38.718Z,76.70
2022-07-28T12:19:08.366Z,75.50
2022-07-28T12:21:49.330Z,75.60
2022-07-28T12:24:26.156Z,75.70
2022-07-28T12:26:53.010Z,76.20
2022-07-28T12:29:20.751Z,76.10
2022-07-28T12:32:02.611Z,75.60
2022-07-28T12:34:31.591Z,75.10
2022-07-28T12:37:02.200Z,74.90
2022-07-28T12:39:30.940Z,75.30
2022-07-28T12:42:06.718Z,76.70
2022-07-28T12:44:44.261Z,75.30
2022-07-28T12:47:12.818Z,76.20
2022-07-28T12:49:41.343Z,74.80
2022-07-28T12:52:16.297Z,75.80
2022-07-28T12:54:43.096Z,75.60
2022-07-28T12:57:43.256Z,75.40
2022-07-28T13:00:15.407Z,76.60
2022-07-28T13:02:42.185Z,76.10
2022-07-28T13:05:10.984Z,77.40
2022-07-28T13:07:40.620Z,77.30
2022-07-28T13:10:12.288Z,76.70
2022-07-28T13:12:39.498Z,78.40
2022-07-28T13:15:16.139Z,78.40
2022-07-28T13:17:51.791Z,77.90
2022-07-28T13:20:19.344Z,78.10
2022-07-28T13:22:46.762Z,78.80
2022-07-28T13:25:14.606Z,78.20
2022-07-28T13:27:41.826Z,78.30
2022-07-28T13:30:10.382Z,77.80
2022-07-28T13:32:40.260Z,79.80
2022-07-28T13:35:15.157Z,78.50
2022-07-28T13:37:42.560Z,79.40
2022-07-28T13:40:09.730Z,79.10
2022-07-28T13:42:36.444Z,78.70
2022-07-28T13:45:05.046Z,78.10
2022-07-28T13:47:35.648Z,78.30
2022-07-28T13:50:07.293Z,78.10
2022-07-28T13:52:37.475Z,77.30
2022-07-28T13:55:06.149Z,79.10
2022-07-28T13:57:35.824Z,76.90
2022-07-28T14:00:07.687Z,77.80
2022-07-28T14:02:35.406Z,78.30
2022-07-28T14:05:02.688Z,76.90
2022-07-28T14:07:31.947Z,77.10
2022-07-28T14:09:59.059Z,77.10
2022-07-28T14:12:26.366Z,76.20
2022-07-28T14:14:53.109Z,76.30
2022-07-28T14:20:10.412Z,76.50
2022-07-28T14:22:37.258Z,76.00
2022-07-28T14:25:04.403Z,76.30
2022-07-28T14:27:31.422Z,75.50
2022-07-28T14:29:58.587Z,76.10
2022-07-28T14:32:25.340Z,76.50
2022-07-28T14:34:53.437Z,76.00
2022-07-28T14:37:21.409Z,75.90
2022-07-28T14:39:48.164Z,75.60
2022-07-28T14:42:14.952Z,76.40
2022-07-28T14:44:41.769Z,76.60
2022-07-28T14:47:08.731Z,76.00
2022-07-28T14:49:36.083Z,76.70
2022-07-28T14:52:04.012Z,75.90
2022-07-28T14:54:33.959Z,75.20
2022-07-28T14:57:00.954Z,74.70
2022-07-28T14:59:27.727Z,75.80
2022-07-28T15:01:54.744Z,76.10
2022-07-28T15:04:21.983Z,75.90
2022-07-28T15:06:48.806Z,76.70
2022-07-28T15:09:15.534Z,75.80
2022-07-28T15:11:50.678Z,75.90
2022-07-28T15:14:21.255Z,75.60
2022-07-28T15:16:50.642Z,75.70
2022-07-28T15:19:21.690Z,75.90
2022-07-28T15:21:51.059Z,75.90
2022-07-28T15:24:19.112Z,76.10
2022-07-28T15:29:35.592Z,75.70
2022-07-28T15:32:13.070Z,75.30
2022-07-28T15:34:42.032Z,75.60
2022-07-28T15:37:20.759Z,75.90
2022-07-28T15:39:47.840Z,75.80
2022-07-28T15:42:15.091Z,76.20
2022-07-28T15:44:44.575Z,76.20
2022-07-28T15:47:14.463Z,76.50
2022-07-28T15:49:41.877Z,77.20
2022-07-28T15:52:14.940Z,77.40
2022-07-28T15:54:47.980Z,77.20
2022-07-28T15:57:14.870Z,77.80
2022-07-28T15:59:49.198Z,79.20
2022-07-28T16:02:23.679Z,78.20
2022-07-28T16:04:53.621Z,78.90
2022-07-28T16:07:23.920Z,78.70
2022-07-28T16:09:55.551Z,77.80
2022-07-28T16:12:24.811Z,78.10
2022-07-28T16:14:55.527Z,79.00
2022-07-28T16:17:23.287Z,78.60
2022-07-28T16:19:51.307Z,78.60
2022-07-28T16:22:21.043Z,78.30
2022-07-28T16:24:48.060Z,79.00
2022-07-28T16:27:15.109Z,79.10
2022-07-28T16:29:44.033Z,78.40
2022-07-28T16:32:18.183Z,79.00
2022-07-28T16:34:47.405Z,80.30
2022-07-28T16:37:19.038Z,80.00
2022-07-28T16:39:54.328Z,80.50
2022-07-28T16:42:21.196Z,80.70
2022-07-28T16:44:48.190Z,81.00
2022-07-28T16:47:18.138Z,81.30
2022-07-28T16:49:46.292Z,81.40
2022-07-28T16:52:14.069Z,81.60
2022-07-28T16:54:45.777Z,81.30
2022-07-28T16:57:16.929Z,81.70
2022-07-28T17:00:04.649Z,81.80
2022-07-28T17:02:33.226Z,82.00
2022-07-28T17:05:06.105Z,82.20
2022-07-28T17:07:46.637Z,82.30
2022-07-28T17:10:20.613Z,82.80
2022-07-28T17:12:56.280Z,83.30
2022-07-28T17:15:25.578Z,83.00
2022-07-28T17:17:53.366Z,83.10
2022-07-28T17:20:21.140Z,83.20
2022-07-28T17:22:48.773Z,83.20
2022-07-28T17:25:45.676Z,83.40
2022-07-28T17:28:07.401Z,84.00
2022-07-28T17:30:38.073Z,84.20
2022-07-28T17:33:08.794Z,84.00
2022-07-28T17:35:40.978Z,84.20
2022-07-28T17:38:10.767Z,84.50
2022-07-28T17:46:16.514Z,85.40
2022-07-28T17:48:49.588Z,84.70
2022-07-28T17:54:05.833Z,85.40
2022-07-28T17:56:44.270Z,85.50
2022-07-28T17:59:16.330Z,84.80
2022-07-28T18:01:51.418Z,85.00
2022-07-28T18:04:18.639Z,85.70
2022-07-28T18:06:45.970Z,85.70
2022-07-28T18:09:13.224Z,85.60
2022-07-28T18:11:56.808Z,86.00
2022-07-28T18:17:21.095Z,86.00
2022-07-28T18:19:52.028Z,86.10
2022-07-28T18:22:18.910Z,86.10
2022-07-28T18:25:08.409Z,86.60
2022-07-28T18:27:36.304Z,87.10
2022-07-28T18:30:34.278Z,87.10
2022-07-28T18:33:04.259Z,87.50
2022-07-28T18:35:34.843Z,87.60
2022-07-28T18:40:54.358Z,87.80
2022-07-28T18:43:28.741Z,88.10
2022-07-28T18:46:28.082Z,88.70
2022-07-28T18:49:13.560Z,88.40
2022-07-28T18:51:46.030Z,88.40
2022-07-28T18:54:27.106Z,89.00
2022-07-28T18:56:57.276Z,90.10
2022-07-28T18:59:31.492Z,90.30
2022-07-28T19:02:10.738Z,90.10
2022-07-28T19:04:41.748Z,90.30
2022-07-28T19:07:10.191Z,89.90
2022-07-28T19:09:48.868Z,90.00
2022-07-28T19:12:22.194Z,90.00
2022-07-28T19:14:51.978Z,90.10
2022-07-28T19:17:26.685Z,90.10
2022-07-28T19:19:56.905Z,90.10
2022-07-28T19:22:27.348Z,90.20
2022-07-28T19:25:03.657Z,90.70
2022-07-28T19:27:36.280Z,90.40
2022-07-28T19:30:07.886Z,90.80
2022-07-28T19:32:38.158Z,90.90
2022-07-28T19:35:07.576Z,90.80
2022-07-28T19:37:41.898Z,91.30
2022-07-28T19:40:10.594Z,91.50
2022-07-28T19:42:40.635Z,91.90
2022-07-28T19:45:11.027Z,91.70
2022-07-28T19:47:49.800Z,92.00
2022-07-28T19:50:44.093Z,91.80
2022-07-28T19:54:22.884Z,91.80
2022-07-28T19:56:48.706Z,91.50
2022-07-28T19:59:16.765Z,91.60
2022-07-28T20:01:47.001Z,91.90
2022-07-28T20:04:18.701Z,92.00
2022-07-28T20:06:45.923Z,92.20
2022-07-28T20:09:22.748Z,92.40
2022-07-28T20:11:56.348Z,92.40
2022-07-28T20:14:23.840Z,92.60
2022-07-28T20:16:51.274Z,92.50
2022-07-28T20:19:20.242Z,92.50
2022-07-28T20:21:48.493Z,92.50
2022-07-28T20:24:16.001Z,92.50
2022-07-28T20:26:43.611Z,92.70
2022-07-28T20:29:12.019Z,93.10
2022-07-28T20:31:39.221Z,92.90
2022-07-28T20:34:13.087Z,93.40
2022-07-28T20:36:40.435Z,93.20
2022-07-28T20:39:34.737Z,93.20
2022-07-28T20:41:55.192Z,93.60
2022-07-28T20:44:29.978Z,93.90
2022-07-28T20:47:04.378Z,94.00
2022-07-28T20:49:31.714Z,94.30
2022-07-28T20:51:58.961Z,94.20
2022-07-28T20:54:26.955Z,94.30
2022-07-28T20:56:54.006Z,94.30
2022-07-28T20:59:21.057Z,94.30
2022-07-28T21:01:52.036Z,94.50
2022-07-28T21:04:21.685Z,94.70
2022-07-28T21:06:55.273Z,94.60
2022-07-28T21:09:35.786Z,94.90
2022-07-28T21:12:05.654Z,95.30
2022-07-28T21:14:32.897Z,95.50
2022-07-28T21:17:04.145Z,95.50
2022-07-28T21:19:31.315Z,95.40
2022-07-28T21:22:00.197Z,95.50
2022-07-28T21:24:27.247Z,95.50
2022-07-28T21:26:54.243Z,95.40
2022-07-28T21:32:03.749Z,95.50
2022-07-28T21:34:34.385Z,95.80
2022-07-28T21:37:05.454Z,95.70
2022-07-28T21:39:38.068Z,96.20
2022-07-28T21:42:08.080Z,96.00
2022-07-28T21:44:36.621Z,95.80
2022-07-28T21:47:07.150Z,95.90
2022-07-28T21:49:40.046Z,95.90
2022-07-28T21:52:14.649Z,95.90
2022-07-28T21:57:46.533Z,96.10
2022-07-28T22:00:13.981Z,96.10
2022-07-28T22:02:43.075Z,96.40
2022-07-28T22:05:10.245Z,96.60
2022-07-28T22:07:37.198Z,97.10
2022-07-28T22:10:05.215Z,97.20
2022-07-28T22:12:32.181Z,97.10
2022-07-28T22:14:59.027Z,97.20
2022-07-28T22:17:26.082Z,97.10
2022-07-28T22:19:53.061Z,97.50
2022-07-28T22:22:20.232Z,97.10
2022-07-28T22:24:47.121Z,97.40
2022-07-28T22:27:13.977Z,98.10
2022-07-28T22:29:45.391Z,97.70
2022-07-28T22:32:19.048Z,98.20
2022-07-28T22:34:55.648Z,98.50
2022-07-28T22:37:22.424Z,99.10
2022-07-28T22:39:49.214Z,98.50
2022-07-28T22:42:16.427Z,98.40
2022-07-28T22:44:43.275Z,98.60
2022-07-28T22:47:10.151Z,98.70
2022-07-28T22:49:37.231Z,98.90
2022-07-28T22:52:04.340Z,98.90
2022-07-28T22:54:31.133Z,98.80
2022-07-28T22:56:57.954Z,98.90
2022-07-28T22:59:24.871Z,99.00
2022-07-28T23:01:52.047Z,99.00
2022-07-28T23:04:19.098Z,99.20
2022-07-28T23:06:49.237Z,99.40
2022-07-28T23:09:16.060Z,99.30
2022-07-28T23:11:42.889Z,99.90
2022-07-28T23:14:23.022Z,99.90
2022-07-28T23:16:50.020Z,99.90
2022-07-28T23:19:17.697Z,99.90
2022-07-28T23:21:44.634Z,99.90
2022-07-28T23:24:11.729Z,99.90
2022-07-28T23:26:38.618Z,99.90
2022-07-28T23:29:08.531Z,99.90
2022-07-28T23:31:35.564Z,99.90
2022-07-28T23:34:02.445Z,99.90
2022-07-28T23:36:29.455Z,99.90
2022-07-28T23:38:57.626Z,99.90
2022-07-28T23:41:24.943Z,99.90
2022-07-28T23:43:51.981Z,99.90
2022-07-28T23:46:18.869Z,99.90
2022-07-28T23:48:45.782Z,99.90
2022-07-28T23:51:14.112Z,99.90
2022-07-28T23:53:43.924Z,99.90
2022-07-28T23:56:10.791Z,99.90
2022-07-28T23:58:37.708Z,99.90
